createdAt,value
2022-11-07T00:02:44.054Z,8.10
2022-11-07T00:05:32.912Z,8.10
2022-11-07T00:08:31.810Z,8.10
2022-11-07T00:11:21.863Z,8.20
2022-11-07T00:14:12.455Z,8.20
2022-11-07T00:17:01.104Z,8.20
2022-11-07T00:19:49.671Z,8.20
2022-11-07T00:22:38.290Z,8.20
2022-11-07T00:25:26.897Z,8.30
2022-11-07T00:28:16.979Z,8.30
2022-11-07T00:31:06.281Z,8.30
2022-11-07T00:33:54.895Z,8.30
2022-11-07T00:36:43.447Z,8.30
2022-11-07T00:39:31.989Z,8.30
2022-11-07T00:42:20.708Z,8.30
2022-11-07T00:45:11.922Z,8.40
2022-11-07T00:48:00.556Z,8.40
2022-11-07T00:50:49.479Z,8.40
2022-11-07T00:53:38.261Z,8.40
2022-11-07T00:56:27.246Z,8.40
2022-11-07T00:59:15.873Z,8.40
2022-11-07T01:02:06.145Z,8.40
2022-11-07T01:05:11.643Z,8.40
2022-11-07T01:08:00.294Z,8.40
2022-11-07T01:10:48.872Z,8.40
2022-11-07T01:13:38.188Z,8.40
2022-11-07T01:16:27.893Z,8.30
2022-11-07T01:19:17.969Z,8.20
2022-11-07T01:22:06.605Z,8.10
2022-11-07T01:24:55.818Z,8.10
2022-11-07T01:27:44.385Z,8.00
2022-11-07T01:30:33.035Z,8.00
2022-11-07T01:33:21.704Z,8.00
2022-11-07T01:36:14.513Z,7.90
2022-11-07T01:39:03.146Z,7.90
2022-11-07T01:41:51.808Z,8.00
2022-11-07T01:44:52.825Z,8.00
2022-11-07T01:47:41.762Z,7.90
2022-11-07T01:50:31.630Z,7.90
2022-11-07T01:53:21.677Z,7.90
2022-11-07T01:56:15.097Z,7.90
2022-11-07T01:59:04.327Z,7.90
2022-11-07T02:01:53.051Z,8.00
2022-11-07T02:04:42.029Z,8.10
2022-11-07T02:07:31.351Z,8.10
2022-11-07T02:10:22.215Z,8.10
2022-11-07T02:13:14.859Z,8.10
2022-11-07T02:16:05.381Z,8.10
2022-11-07T02:18:54.540Z,8.10
2022-11-07T02:21:50.443Z,8.10
2022-11-07T02:24:40.849Z,8.00
2022-11-07T02:27:32.551Z,8.00
2022-11-07T02:30:24.018Z,7.90
2022-11-07T02:33:20.452Z,8.00
2022-11-07T02:36:15.020Z,8.00
2022-11-07T02:39:03.754Z,7.90
2022-11-07T02:41:54.600Z,7.90
2022-11-07T02:44:43.223Z,7.90
2022-11-07T02:47:31.792Z,7.90
2022-11-07T02:50:20.606Z,7.90
2022-11-07T02:53:09.268Z,7.90
2022-11-07T02:55:57.848Z,7.90
2022-11-07T02:58:48.247Z,8.00
2022-11-07T03:01:36.985Z,7.90
2022-11-07T03:04:25.634Z,7.90
2022-11-07T03:07:14.212Z,7.80
2022-11-07T03:10:02.804Z,7.80
2022-11-07T03:12:51.726Z,7.80
2022-11-07T03:15:41.671Z,7.90
2022-11-07T03:18:30.271Z,8.10
2022-11-07T03:21:19.625Z,8.10
2022-11-07T03:24:08.458Z,8.20
2022-11-07T03:26:57.024Z,8.20
2022-11-07T03:29:46.007Z,8.20
2022-11-07T03:32:36.415Z,8.30
2022-11-07T03:35:25.094Z,8.30
2022-11-07T03:38:13.709Z,8.40
2022-11-07T03:41:02.457Z,8.40
2022-11-07T03:43:51.054Z,8.40
2022-11-07T03:46:39.628Z,8.50
2022-11-07T03:49:29.633Z,8.50
2022-11-07T03:52:18.268Z,8.60
2022-11-07T03:55:08.007Z,8.60
2022-11-07T03:57:56.597Z,8.60
2022-11-07T04:00:45.148Z,8.70
2022-11-07T04:03:34.195Z,8.70
2022-11-07T04:06:24.297Z,8.70
2022-11-07T04:09:12.958Z,8.70
2022-11-07T04:12:18.886Z,8.70
2022-11-07T04:15:25.637Z,8.80
2022-11-07T04:18:14.330Z,8.80
2022-11-07T04:21:02.904Z,8.80
2022-11-07T04:23:52.985Z,8.80
2022-11-07T04:26:58.758Z,8.80
2022-11-07T04:29:47.810Z,8.80
2022-11-07T04:32:36.448Z,8.80
2022-11-07T04:35:27.757Z,8.90
2022-11-07T04:38:16.459Z,8.90
2022-11-07T04:41:06.639Z,8.90
2022-11-07T04:43:55.450Z,8.90
2022-11-07T04:46:44.045Z,8.80
2022-11-07T04:49:32.743Z,8.80
2022-11-07T04:52:21.400Z,8.80
2022-11-07T04:55:17.800Z,8.80
2022-11-07T04:58:07.973Z,8.80
2022-11-07T05:00:56.735Z,8.80
2022-11-07T05:03:45.389Z,8.80
2022-11-07T05:06:37.261Z,8.90
2022-11-07T05:09:27.453Z,9.00
2022-11-07T05:12:16.082Z,9.00
2022-11-07T05:15:07.052Z,9.00
2022-11-07T05:17:55.780Z,9.00
2022-11-07T05:20:44.395Z,9.10
2022-11-07T05:23:33.185Z,9.00
2022-11-07T05:26:21.872Z,9.00
2022-11-07T05:29:13.015Z,9.00
2022-11-07T05:32:03.122Z,9.10
2022-11-07T05:34:51.847Z,9.10
2022-11-07T05:37:40.454Z,9.10
2022-11-07T05:40:29.167Z,9.10
2022-11-07T05:43:18.330Z,9.10
2022-11-07T05:46:08.831Z,9.10
2022-11-07T05:49:01.154Z,9.10
2022-11-07T05:51:50.062Z,9.10
2022-11-07T05:54:38.818Z,9.20
2022-11-07T05:57:27.482Z,9.10
2022-11-07T06:00:17.308Z,9.20
2022-11-07T06:03:06.040Z,9.10
2022-11-07T06:05:56.278Z,9.10
2022-11-07T06:08:44.932Z,9.10
2022-11-07T06:11:33.830Z,9.10
2022-11-07T06:14:22.574Z,9.20
2022-11-07T06:17:11.281Z,9.10
2022-11-07T06:20:00.075Z,9.20
2022-11-07T06:22:50.127Z,9.20
2022-11-07T06:25:38.882Z,9.20
2022-11-07T06:28:27.559Z,9.20
2022-11-07T06:31:16.231Z,9.20
2022-11-07T06:34:04.871Z,9.20
2022-11-07T06:37:02.455Z,9.20
2022-11-07T06:39:53.318Z,9.30
2022-11-07T06:42:41.950Z,9.30
2022-11-07T06:45:30.595Z,9.30
2022-11-07T06:48:19.258Z,9.40
2022-11-07T06:51:09.914Z,9.40
2022-11-07T06:53:59.276Z,9.40
2022-11-07T06:56:49.413Z,9.50
2022-11-07T06:59:38.462Z,9.50
2022-11-07T07:02:52.352Z,9.50
2022-11-07T07:05:36.548Z,9.60
2022-11-07T07:08:25.303Z,9.50
2022-11-07T07:11:15.664Z,9.50
2022-11-07T07:14:11.222Z,9.60
2022-11-07T07:17:00.400Z,9.60
2022-11-07T07:19:49.068Z,9.60
2022-11-07T07:22:37.778Z,9.70
2022-11-07T07:25:26.735Z,9.60
2022-11-07T07:28:15.487Z,9.70
2022-11-07T07:31:24.443Z,9.80
2022-11-07T07:34:14.630Z,9.80
2022-11-07T07:37:03.232Z,9.80
2022-11-07T07:39:52.629Z,9.80
2022-11-07T07:42:44.979Z,9.70
2022-11-07T07:45:33.713Z,9.80
2022-11-07T07:48:23.692Z,9.80
2022-11-07T07:51:12.341Z,9.80
2022-11-07T07:54:01.215Z,9.80
2022-11-07T07:56:49.953Z,9.80
2022-11-07T07:59:38.621Z,9.80
2022-11-07T08:02:27.345Z,9.80
2022-11-07T08:05:17.885Z,9.80
2022-11-07T08:08:07.865Z,9.90
2022-11-07T08:11:03.055Z,9.90
2022-11-07T08:13:52.307Z,9.90
2022-11-07T08:16:40.858Z,9.90
2022-11-07T08:19:29.463Z,9.90
2022-11-07T08:22:19.713Z,9.90
2022-11-07T08:25:11.304Z,9.90
2022-11-07T08:28:01.764Z,9.90
2022-11-07T08:30:58.927Z,9.90
2022-11-07T08:33:48.726Z,9.90
2022-11-07T08:36:38.269Z,9.90
2022-11-07T08:39:29.640Z,9.90
2022-11-07T08:42:25.012Z,9.90
2022-11-07T08:45:13.734Z,10.00
2022-11-07T08:48:02.576Z,10.10
2022-11-07T08:50:54.111Z,10.10
2022-11-07T08:53:46.182Z,10.10
2022-11-07T08:56:36.772Z,10.10
2022-11-07T08:59:26.109Z,10.20
2022-11-07T09:05:23.592Z,10.30
2022-11-07T09:08:12.189Z,10.20
2022-11-07T09:11:05.322Z,10.20
2022-11-07T09:13:56.477Z,10.20
2022-11-07T09:16:44.983Z,10.20
2022-11-07T09:19:33.540Z,10.20
2022-11-07T09:22:22.077Z,10.20
2022-11-07T09:25:11.383Z,10.20
2022-11-07T09:28:03.723Z,10.10
2022-11-07T09:31:32.069Z,10.10
2022-11-07T09:34:21.991Z,10.00
2022-11-07T09:37:10.514Z,10.10
2022-11-07T09:39:59.151Z,10.00
2022-11-07T09:42:59.106Z,10.00
2022-11-07T09:45:56.252Z,10.10
2022-11-07T09:48:48.084Z,10.20
2022-11-07T09:51:40.816Z,10.20
2022-11-07T09:54:32.648Z,10.20
2022-11-07T09:57:21.531Z,10.30
2022-11-07T10:00:16.381Z,10.30
2022-11-07T10:03:05.145Z,10.40
2022-11-07T10:06:01.493Z,10.50
2022-11-07T10:08:54.649Z,10.50
2022-11-07T10:11:49.792Z,10.50
2022-11-07T10:14:49.864Z,10.40
2022-11-07T10:17:53.950Z,10.40
2022-11-07T10:21:05.412Z,10.40
2022-11-07T10:24:16.473Z,10.40
2022-11-07T10:27:10.309Z,10.40
2022-11-07T10:30:00.601Z,10.50
2022-11-07T10:32:56.476Z,10.50
2022-11-07T10:35:51.121Z,10.60
2022-11-07T10:38:43.567Z,10.70
2022-11-07T10:41:34.455Z,10.90
2022-11-07T10:44:25.926Z,11.00
2022-11-07T10:47:18.170Z,11.10
2022-11-07T10:50:19.163Z,11.10
2022-11-07T10:53:09.848Z,11.10
2022-11-07T10:56:00.049Z,10.90
2022-11-07T10:58:51.168Z,10.80
2022-11-07T11:01:39.805Z,10.90
2022-11-07T11:04:30.518Z,10.90
2022-11-07T11:07:22.980Z,11.00
2022-11-07T11:10:21.255Z,11.00
2022-11-07T11:13:28.212Z,11.00
2022-11-07T11:16:26.716Z,11.00
2022-11-07T11:19:22.551Z,11.00
2022-11-07T11:22:16.622Z,10.90
2022-11-07T11:25:16.146Z,10.90
2022-11-07T11:28:09.416Z,11.00
2022-11-07T11:31:11.641Z,11.10
2022-11-07T11:34:06.409Z,11.10
2022-11-07T11:37:03.843Z,11.20
2022-11-07T11:40:10.747Z,11.20
2022-11-07T11:43:04.194Z,11.30
2022-11-07T11:46:03.478Z,11.30
2022-11-07T11:48:55.933Z,11.30
2022-11-07T11:51:52.227Z,11.30
2022-11-07T11:54:42.777Z,11.30
2022-11-07T11:57:44.354Z,11.30
2022-11-07T12:00:46.061Z,11.20
2022-11-07T12:03:57.189Z,11.20
2022-11-07T12:06:48.406Z,11.10
2022-11-07T12:09:42.830Z,11.20
2022-11-07T12:12:42.195Z,11.20
2022-11-07T12:15:51.493Z,11.20
2022-11-07T12:18:49.300Z,11.20
2022-11-07T12:21:49.164Z,11.30
2022-11-07T12:24:47.800Z,11.30
2022-11-07T12:27:44.113Z,11.40
2022-11-07T12:30:45.387Z,11.40
2022-11-07T12:33:40.971Z,11.30
2022-11-07T12:36:46.571Z,11.30
2022-11-07T12:40:13.110Z,11.30
2022-11-07T12:43:15.122Z,11.40
2022-11-07T12:46:12.921Z,11.40
2022-11-07T12:49:14.399Z,11.30
2022-11-07T12:52:11.908Z,11.20
2022-11-07T12:55:04.317Z,11.20
2022-11-07T12:57:55.793Z,11.20
2022-11-07T13:00:45.624Z,11.20
2022-11-07T13:04:01.379Z,11.10
2022-11-07T13:06:55.872Z,11.10
2022-11-07T13:09:53.677Z,11.10
2022-11-07T13:12:53.190Z,11.00
2022-11-07T13:16:13.386Z,10.90
2022-11-07T13:18:50.830Z,10.80
2022-11-07T13:21:43.718Z,10.80
2022-11-07T13:24:33.652Z,10.80
2022-11-07T13:27:26.739Z,10.80
2022-11-07T13:30:24.619Z,10.80
2022-11-07T13:33:27.723Z,10.80
2022-11-07T13:36:27.000Z,10.80
2022-11-07T13:39:16.568Z,10.80
2022-11-07T13:42:05.850Z,10.70
2022-11-07T13:44:57.152Z,10.70
2022-11-07T13:47:48.626Z,10.60
2022-11-07T13:50:41.656Z,10.60
2022-11-07T13:53:34.399Z,10.60
2022-11-07T13:56:31.292Z,10.50
2022-11-07T13:59:36.804Z,10.60
2022-11-07T14:02:29.063Z,10.60
2022-11-07T14:05:22.144Z,10.60
2022-11-07T14:08:20.527Z,10.60
2022-11-07T14:11:19.318Z,10.60
2022-11-07T14:14:09.842Z,10.60
2022-11-07T14:17:02.069Z,10.60
2022-11-07T14:19:50.679Z,10.60
2022-11-07T14:22:40.716Z,10.70
2022-11-07T14:25:31.746Z,10.60
2022-11-07T14:28:20.569Z,10.60
2022-11-07T14:31:16.865Z,10.70
2022-11-07T14:34:17.370Z,10.70
2022-11-07T14:37:08.298Z,10.70
2022-11-07T14:39:58.897Z,10.80
2022-11-07T14:42:48.449Z,10.80
2022-11-07T14:46:10.916Z,10.80
2022-11-07T14:48:49.681Z,10.80
2022-11-07T14:51:38.296Z,10.80
2022-11-07T14:54:32.804Z,10.70
2022-11-07T14:57:23.247Z,10.70
2022-11-07T15:00:15.615Z,10.70
2022-11-07T15:03:04.823Z,10.80
2022-11-07T15:05:53.490Z,10.80
2022-11-07T15:08:42.452Z,10.80
2022-11-07T15:11:34.274Z,10.80
2022-11-07T15:14:32.816Z,10.80
2022-11-07T15:17:24.637Z,10.80
2022-11-07T15:20:23.931Z,10.80
2022-11-07T15:23:31.702Z,10.70
2022-11-07T15:26:23.563Z,10.80
2022-11-07T15:29:22.152Z,10.80
2022-11-07T15:32:19.508Z,10.70
2022-11-07T15:35:42.991Z,10.60
2022-11-07T15:38:26.517Z,10.60
2022-11-07T15:41:15.309Z,10.60
2022-11-07T15:44:03.992Z,10.60
2022-11-07T15:46:52.603Z,10.60
2022-11-07T15:49:43.047Z,10.60
2022-11-07T15:52:31.633Z,10.70
2022-11-07T15:55:21.942Z,10.70
2022-11-07T15:58:14.707Z,10.70
2022-11-07T16:01:03.637Z,10.70
2022-11-07T16:03:52.265Z,10.70
2022-11-07T16:06:46.128Z,10.70
2022-11-07T16:09:34.994Z,10.70
2022-11-07T16:12:23.534Z,10.70
2022-11-07T16:15:14.596Z,10.70
2022-11-07T16:18:03.745Z,10.70
2022-11-07T16:20:52.805Z,10.60
2022-11-07T16:23:44.634Z,10.70
2022-11-07T16:26:33.374Z,10.80
2022-11-07T16:29:21.974Z,10.80
2022-11-07T16:32:17.597Z,10.70
2022-11-07T16:35:07.312Z,10.70
2022-11-07T16:37:55.943Z,10.80
2022-11-07T16:40:46.317Z,10.80
2022-11-07T16:43:37.603Z,10.80
2022-11-07T16:46:27.717Z,10.70
2022-11-07T16:49:26.083Z,10.70
2022-11-07T16:52:16.238Z,10.70
2022-11-07T16:55:05.201Z,10.80
2022-11-07T16:57:55.382Z,10.80
2022-11-07T17:00:44.008Z,10.80
2022-11-07T17:03:32.810Z,10.80
2022-11-07T17:06:26.339Z,10.80
2022-11-07T17:09:17.173Z,10.80
2022-11-07T17:12:11.895Z,10.80
2022-11-07T17:15:01.954Z,10.80
2022-11-07T17:17:54.061Z,10.80
2022-11-07T17:20:52.539Z,10.70
2022-11-07T17:23:41.208Z,10.70
2022-11-07T17:26:34.815Z,10.80
2022-11-07T17:29:23.380Z,10.70
2022-11-07T17:32:13.336Z,10.70
2022-11-07T17:35:30.527Z,10.70
2022-11-07T17:38:16.362Z,10.60
2022-11-07T17:41:17.327Z,10.60
2022-11-07T17:44:08.306Z,10.60
2022-11-07T17:47:01.851Z,10.60
2022-11-07T17:49:52.048Z,10.60
2022-11-07T17:52:40.663Z,10.50
2022-11-07T17:55:29.273Z,10.40
2022-11-07T17:58:18.015Z,10.40
2022-11-07T18:01:07.169Z,10.50
2022-11-07T18:03:56.242Z,10.50
2022-11-07T18:06:46.225Z,10.50
2022-11-07T18:09:34.947Z,10.50
2022-11-07T18:12:23.528Z,10.50
2022-11-07T18:15:13.587Z,10.40
2022-11-07T18:18:06.786Z,10.40
2022-11-07T18:21:00.022Z,10.30
2022-11-07T18:23:49.988Z,10.30
2022-11-07T18:26:38.638Z,10.20
2022-11-07T18:29:27.189Z,10.20
2022-11-07T18:32:15.872Z,10.20
2022-11-07T18:35:06.242Z,10.20
2022-11-07T18:37:55.057Z,10.10
2022-11-07T18:40:45.088Z,10.10
2022-11-07T18:43:34.088Z,10.10
2022-11-07T18:46:22.841Z,10.10
2022-11-07T18:49:13.927Z,10.10
2022-11-07T18:52:02.617Z,10.10
2022-11-07T18:54:51.571Z,10.10
2022-11-07T18:57:42.506Z,10.00
2022-11-07T19:00:31.108Z,10.00
2022-11-07T19:03:19.749Z,10.00
2022-11-07T19:06:10.196Z,9.90
2022-11-07T19:08:59.321Z,9.90
2022-11-07T19:11:47.933Z,9.90
2022-11-07T19:14:38.082Z,9.90
2022-11-07T19:17:26.897Z,9.80
2022-11-07T19:20:15.990Z,9.90
2022-11-07T19:23:04.597Z,9.80
2022-11-07T19:25:54.195Z,9.80
2022-11-07T19:28:42.817Z,9.80
2022-11-07T19:31:34.877Z,9.80
2022-11-07T19:34:25.606Z,9.70
2022-11-07T19:37:14.213Z,9.70
2022-11-07T19:40:02.798Z,9.70
2022-11-07T19:42:51.895Z,9.70
2022-11-07T19:45:42.226Z,9.60
2022-11-07T19:48:32.222Z,9.60
2022-11-07T19:51:23.228Z,9.60
2022-11-07T19:54:12.096Z,9.50
2022-11-07T19:57:00.707Z,9.40
2022-11-07T19:59:49.304Z,9.40
2022-11-07T20:02:44.120Z,9.40
2022-11-07T20:05:35.226Z,9.30
2022-11-07T20:08:27.414Z,9.30
2022-11-07T20:11:16.894Z,9.30
2022-11-07T20:14:05.773Z,9.30
2022-11-07T20:16:54.534Z,9.30
2022-11-07T20:19:43.167Z,9.30
2022-11-07T20:22:33.209Z,9.30
2022-11-07T20:25:21.808Z,9.40
2022-11-07T20:28:10.740Z,9.40
2022-11-07T20:30:59.382Z,9.40
2022-11-07T20:33:48.663Z,9.50
2022-11-07T20:36:37.288Z,9.50
2022-11-07T20:39:27.298Z,9.50
2022-11-07T20:42:15.965Z,9.50
2022-11-07T20:45:04.666Z,9.50
2022-11-07T20:47:53.264Z,9.50
2022-11-07T20:50:41.924Z,9.50
2022-11-07T20:53:30.534Z,9.50
2022-11-07T20:56:20.838Z,9.60
2022-11-07T20:59:09.845Z,9.60
2022-11-07T21:02:03.218Z,9.60
2022-11-07T21:05:16.071Z,9.60
2022-11-07T21:08:01.590Z,9.60
2022-11-07T21:10:51.727Z,9.60
2022-11-07T21:13:43.067Z,9.50
2022-11-07T21:16:34.575Z,9.50
2022-11-07T21:19:23.293Z,9.50
2022-11-07T21:22:11.898Z,9.40
2022-11-07T21:25:00.494Z,9.40
2022-11-07T21:27:49.284Z,9.40
2022-11-07T21:30:39.883Z,9.50
2022-11-07T21:33:28.559Z,9.40
2022-11-07T21:36:18.996Z,9.40
2022-11-07T21:39:08.705Z,9.40
2022-11-07T21:41:57.308Z,9.40
2022-11-07T21:44:45.877Z,9.40
2022-11-07T21:47:35.875Z,9.40
2022-11-07T21:50:43.386Z,9.40
2022-11-07T21:53:37.485Z,9.30
2022-11-07T21:56:28.531Z,9.40
2022-11-07T21:59:17.921Z,9.40
2022-11-07T22:02:06.588Z,9.40
2022-11-07T22:04:56.672Z,9.40
2022-11-07T22:07:45.344Z,9.40
2022-11-07T22:10:33.943Z,9.40
2022-11-07T22:13:22.557Z,9.50
2022-11-07T22:16:14.142Z,9.50
2022-11-07T22:19:02.801Z,9.40
2022-11-07T22:21:52.748Z,9.30
2022-11-07T22:24:41.336Z,9.40
2022-11-07T22:27:29.913Z,9.40
2022-11-07T22:30:19.836Z,9.40
2022-11-07T22:33:08.455Z,9.40
2022-11-07T22:35:57.990Z,9.30
2022-11-07T22:38:48.191Z,9.30
2022-11-07T22:41:36.743Z,9.30
2022-11-07T22:44:25.332Z,9.20
2022-11-07T22:47:13.918Z,9.20
2022-11-07T22:50:02.529Z,9.10
2022-11-07T22:52:51.133Z,9.10
2022-11-07T22:55:41.421Z,9.10
2022-11-07T22:58:30.155Z,9.10
2022-11-07T23:01:20.649Z,9.10
2022-11-07T23:04:13.680Z,9.00
2022-11-07T23:07:02.210Z,8.90
2022-11-07T23:09:50.849Z,8.80
2022-11-07T23:12:40.817Z,8.90
2022-11-07T23:15:29.407Z,8.90
2022-11-07T23:18:18.381Z,9.00
2022-11-07T23:21:14.109Z,9.00
2022-11-07T23:24:03.085Z,9.00
2022-11-07T23:26:51.909Z,8.90
2022-11-07T23:29:42.100Z,8.90
2022-11-07T23:32:31.530Z,8.80
2022-11-07T23:35:20.130Z,8.80
2022-11-07T23:38:08.696Z,8.80
2022-11-07T23:40:57.287Z,8.70
2022-11-07T23:43:49.857Z,8.70
2022-11-07T23:47:00.411Z,8.70
2022-11-07T23:50:21.000Z,8.80
2022-11-07T23:53:30.035Z,8.80
2022-11-07T23:56:18.206Z,8.80
2022-11-07T23:59:24.627Z,8.80
